Watertown, WI (53098)

7:08 PM CDT on August 30, 2016 (GMT -0500)
K9LUK's Station | | Change Station

Elev 834 ft 43.20 °N, 88.75 °W | Updated 7 seconds ago

Clear
Clear
76.8 °F
Feels Like 78 °F
N
0.0
Wind Variable Wind from SSW
Gusts 0.0 mph

Today
High -- | Low -- °F
--% Chance of Precip.
Yesterday
High -- | Low -- °F
Precip. -- in
Pressure 30.04 in
Visibility 10.0 miles
Clouds Clear
Heat Index 78 °F
Dew Point 72 °F
Humidity 84%
Rainfall 0.25 in
Snow Depth Not available.
6:17 AM 7:32 PM
Waning Crescent, 2% visible
METAR KRYV 302355Z AUTO 23005KT 10SM CLR 24/22 A3004 RMK AO2 T02360220 10265 20225
Pressure 30.04 in
Visibility 10.0 miles
Clouds Clear
Heat Index 78 °F
Dew Point 72 °F
Humidity 84%
Rainfall 0.25 in
Snow Depth Not available.
6:17 AM 7:32 PM
Waning Crescent, 2% visible
METAR KRYV 302355Z AUTO 23005KT 10SM CLR 24/22 A3004 RMK AO2 T02360220 10265 20225

10-Day Weather Forecast

Almanac

Astronomy

Aug. 30, 2016 Rise Set
Actual Time
Civil Twilight
Nautical Twilight
Astronomical Twilight
Moon
Length of Visible Light
Length of Day
Tomorrow will be .
, % of the Moon is Illuminated

Today's Extremes

State Highs State Lows

Community

WunderPhotos

Upload Photos

1,935,958 photos uploaded!

WunderBlog® & News

Nearby

Air Quality

  Air Quality AQ Index Pollutant
Not available.

Snow Depth

Station Depth Elevation

Earthquake Activity

City Distance Mag. Time & Date
Minimum magnitude displayed is 2.5.

Coastal Water Temperatures

Place Temperature

Stations

Nearby Weather Stations

Station Location Temp. Windchill Dew Point Humidity Wind Precip. Elev Updated Type
                   

Watches & Warnings

There are currently no watches in effect.